createdAt,value
2018-09-10T00:00:35.912Z,17.30
2018-09-10T00:03:04.614Z,17.20
2018-09-10T00:05:33.252Z,17.20
2018-09-10T00:08:01.892Z,17.10
2018-09-10T00:10:30.688Z,17.10
2018-09-10T00:12:59.356Z,17.10
2018-09-10T00:15:27.994Z,17.10
2018-09-10T00:17:58.334Z,17.10
2018-09-10T00:20:26.952Z,17.10
2018-09-10T00:22:55.633Z,17.00
2018-09-10T00:25:24.266Z,16.90
2018-09-10T00:27:53.730Z,16.90
2018-09-10T00:30:22.418Z,16.90
2018-09-10T00:32:51.213Z,16.80
2018-09-10T00:35:19.875Z,16.80
2018-09-10T00:37:50.349Z,16.80
2018-09-10T00:40:19.007Z,16.80
2018-09-10T00:42:47.645Z,16.80
2018-09-10T00:45:16.312Z,16.70
2018-09-10T00:47:45.031Z,16.70
2018-09-10T00:50:13.709Z,16.70
2018-09-10T00:52:42.397Z,16.60
2018-09-10T00:55:11.081Z,16.70
2018-09-10T00:57:39.810Z,16.60
2018-09-10T01:00:08.446Z,16.50
2018-09-10T01:02:37.113Z,16.50
2018-09-10T01:05:05.771Z,16.50
2018-09-10T01:07:34.455Z,16.50
2018-09-10T01:10:03.119Z,16.50
2018-09-10T01:12:31.784Z,16.50
2018-09-10T01:15:00.411Z,16.50
2018-09-10T01:17:29.204Z,16.50
2018-09-10T01:19:57.895Z,16.40
2018-09-10T01:22:26.563Z,16.40
2018-09-10T01:24:55.218Z,16.40
2018-09-10T01:27:23.845Z,16.40
2018-09-10T01:29:52.515Z,16.30
2018-09-10T01:32:21.171Z,16.30
2018-09-10T01:34:55.310Z,16.40
2018-09-10T01:37:23.971Z,16.40
2018-09-10T01:39:52.639Z,16.40
2018-09-10T01:42:21.281Z,16.30
2018-09-10T01:44:49.950Z,16.30
2018-09-10T01:47:18.607Z,16.30
2018-09-10T01:49:47.252Z,16.30
2018-09-10T01:52:15.911Z,16.30
2018-09-10T01:54:44.576Z,16.20
2018-09-10T01:57:13.228Z,16.20
2018-09-10T01:59:41.874Z,16.30
2018-09-10T02:02:10.564Z,16.10
2018-09-10T02:04:39.224Z,16.10
2018-09-10T02:07:07.916Z,16.10
2018-09-10T02:09:36.548Z,16.10
2018-09-10T02:12:05.200Z,16.00
2018-09-10T02:14:33.839Z,16.00
2018-09-10T02:17:02.556Z,16.00
2018-09-10T02:19:31.247Z,16.00
2018-09-10T02:21:59.906Z,16.00
2018-09-10T02:24:28.545Z,15.90
2018-09-10T02:29:32.245Z,15.90
2018-09-10T02:32:00.893Z,15.90
2018-09-10T02:34:29.575Z,15.90
2018-09-10T02:36:58.259Z,16.00
2018-09-10T02:39:26.911Z,16.00
2018-09-10T02:41:55.627Z,16.10
2018-09-10T02:44:24.296Z,16.10
2018-09-10T02:46:52.951Z,16.10
2018-09-10T02:49:21.592Z,16.10
2018-09-10T02:51:50.257Z,16.10
2018-09-10T02:54:18.902Z,16.10
2018-09-10T02:56:47.551Z,16.20
2018-09-10T02:59:16.298Z,16.20
2018-09-10T03:01:45.304Z,16.10
2018-09-10T03:04:14.116Z,16.20
2018-09-10T03:06:42.789Z,16.10
2018-09-10T03:09:11.468Z,16.20
2018-09-10T03:11:40.121Z,16.20
2018-09-10T03:14:09.124Z,16.20
2018-09-10T03:16:37.936Z,16.10
2018-09-10T03:19:06.616Z,16.10
2018-09-10T03:21:35.284Z,16.10
2018-09-10T03:24:04.005Z,16.10
2018-09-10T03:26:32.664Z,16.10
2018-09-10T03:29:01.316Z,16.00
2018-09-10T03:31:29.977Z,16.00
2018-09-10T03:33:58.629Z,16.00
2018-09-10T03:36:27.267Z,16.00
2018-09-10T03:38:55.938Z,16.00
2018-09-10T03:41:24.604Z,16.10
2018-09-10T03:43:53.272Z,16.00
2018-09-10T03:46:21.932Z,16.00
2018-09-10T03:48:50.612Z,16.00
2018-09-10T03:51:19.296Z,16.00
2018-09-10T03:53:48.088Z,15.90
2018-09-10T03:56:16.852Z,15.90
2018-09-10T03:58:45.472Z,16.00
2018-09-10T04:01:14.144Z,16.00
2018-09-10T04:03:42.796Z,15.90
2018-09-10T04:06:11.490Z,15.80
2018-09-10T04:08:40.154Z,15.80
2018-09-10T04:11:08.808Z,15.70
2018-09-10T04:13:37.446Z,15.80
2018-09-10T04:16:06.120Z,15.80
2018-09-10T04:18:34.780Z,15.80
2018-09-10T04:21:03.440Z,15.80
2018-09-10T04:23:32.109Z,15.70
2018-09-10T04:26:00.864Z,15.70
2018-09-10T04:28:29.523Z,15.70
2018-09-10T04:30:58.188Z,15.70
2018-09-10T04:33:26.999Z,15.70
2018-09-10T04:35:55.657Z,15.60
2018-09-10T04:38:24.401Z,15.50
2018-09-10T04:40:53.105Z,15.50
2018-09-10T04:43:21.824Z,15.50
2018-09-10T04:45:50.878Z,15.50
2018-09-10T04:48:19.699Z,15.50
2018-09-10T04:50:48.378Z,15.50
2018-09-10T04:53:17.071Z,15.50
2018-09-10T04:55:45.773Z,15.50
2018-09-10T04:58:14.612Z,15.50
2018-09-10T05:00:43.096Z,15.50
2018-09-10T05:03:11.768Z,15.50
2018-09-10T05:05:40.431Z,15.50
2018-09-10T05:08:09.171Z,15.60
2018-09-10T05:10:37.786Z,15.60
2018-09-10T05:13:06.447Z,15.60
2018-09-10T05:15:35.093Z,15.60
2018-09-10T05:18:03.740Z,15.60
2018-09-10T05:20:32.434Z,15.60
2018-09-10T05:23:01.102Z,15.70
2018-09-10T05:25:29.784Z,15.70
2018-09-10T05:27:58.447Z,15.70
2018-09-10T05:30:27.100Z,15.70
2018-09-10T05:32:55.804Z,15.80
2018-09-10T05:35:24.487Z,15.80
2018-09-10T05:37:53.507Z,15.80
2018-09-10T05:40:22.158Z,15.80
2018-09-10T05:42:50.858Z,15.90
2018-09-10T05:45:19.555Z,15.90
2018-09-10T05:47:48.782Z,16.00
2018-09-10T05:50:17.436Z,16.00
2018-09-10T05:52:46.280Z,16.10
2018-09-10T05:55:14.945Z,16.20
2018-09-10T05:57:43.616Z,16.20
2018-09-10T06:00:12.273Z,16.20
2018-09-10T06:02:40.950Z,16.20
2018-09-10T06:05:09.622Z,16.20
2018-09-10T06:07:38.400Z,16.30
2018-09-10T06:10:07.268Z,16.30
2018-09-10T06:12:35.951Z,16.20
2018-09-10T06:15:04.747Z,16.20
2018-09-10T06:17:33.374Z,16.10
2018-09-10T06:20:02.038Z,16.00
2018-09-10T06:22:30.719Z,15.90
2018-09-10T06:24:59.433Z,15.90
2018-09-10T06:27:28.069Z,15.90
2018-09-10T06:29:56.776Z,15.90
2018-09-10T06:32:25.787Z,15.90
2018-09-10T06:34:54.437Z,15.90
2018-09-10T06:37:23.126Z,15.90
2018-09-10T06:39:51.785Z,16.00
2018-09-10T06:42:20.471Z,16.00
2018-09-10T06:44:49.117Z,16.10
2018-09-10T06:47:17.810Z,16.20
2018-09-10T06:49:46.498Z,16.20
2018-09-10T06:52:15.157Z,16.30
2018-09-10T06:54:43.906Z,16.30
2018-09-10T06:57:12.555Z,16.40
2018-09-10T06:59:41.293Z,16.40
2018-09-10T07:02:09.916Z,16.40
2018-09-10T07:04:38.589Z,16.50
2018-09-10T07:07:07.314Z,16.50
2018-09-10T07:09:35.970Z,16.60
2018-09-10T07:12:04.632Z,16.60
2018-09-10T07:14:33.300Z,16.70
2018-09-10T07:17:01.940Z,16.80
2018-09-10T07:19:30.649Z,16.80
2018-09-10T07:21:59.501Z,16.90
2018-09-10T07:24:28.168Z,17.00
2018-09-10T07:26:56.828Z,17.00
2018-09-10T07:29:25.521Z,17.00
2018-09-10T07:31:54.184Z,17.10
2018-09-10T07:34:22.844Z,17.10
2018-09-10T07:36:51.558Z,17.20
2018-09-10T07:39:20.216Z,17.20
2018-09-10T07:41:48.882Z,17.30
2018-09-10T07:44:17.611Z,17.30
2018-09-10T07:46:46.240Z,17.30
2018-09-10T07:49:14.900Z,17.40
2018-09-10T07:51:43.556Z,17.50
2018-09-10T07:54:12.252Z,17.50
2018-09-10T07:56:40.940Z,17.60
2018-09-10T07:59:09.728Z,17.60
2018-09-10T08:01:38.686Z,17.70
2018-09-10T08:04:07.510Z,17.70
2018-09-10T08:06:36.423Z,17.90
2018-09-10T08:09:07.162Z,18.00
2018-09-10T08:11:35.822Z,18.30
2018-09-10T08:14:04.492Z,18.30
2018-09-10T08:16:33.186Z,18.40
2018-09-10T08:19:01.820Z,18.50
2018-09-10T08:21:30.487Z,18.60
2018-09-10T08:23:59.221Z,18.60
2018-09-10T08:26:27.864Z,18.70
2018-09-10T08:28:56.500Z,18.80
2018-09-10T08:31:25.190Z,18.80
2018-09-10T08:33:53.955Z,18.80
2018-09-10T08:36:22.637Z,18.90
2018-09-10T08:38:51.392Z,18.90
2018-09-10T08:41:20.073Z,19.00
2018-09-10T08:43:48.759Z,19.00
2018-09-10T08:46:17.563Z,19.00
2018-09-10T08:48:46.257Z,19.00
2018-09-10T08:51:14.899Z,19.20
2018-09-10T08:53:43.576Z,19.30
2018-09-10T08:56:12.509Z,19.30
2018-09-10T08:58:40.924Z,19.60
2018-09-10T09:01:09.591Z,19.70
2018-09-10T09:03:38.248Z,19.80
2018-09-10T09:06:06.931Z,19.90
2018-09-10T09:08:35.562Z,20.10
2018-09-10T09:11:04.248Z,20.20
2018-09-10T09:13:32.902Z,20.40
2018-09-10T09:16:01.619Z,20.60
2018-09-10T09:18:30.275Z,20.70
2018-09-10T09:20:58.921Z,20.90
2018-09-10T09:23:27.607Z,20.90
2018-09-10T09:25:56.264Z,21.00
2018-09-10T09:28:24.936Z,21.10
2018-09-10T09:30:53.613Z,21.30
2018-09-10T09:33:22.296Z,21.30
2018-09-10T09:35:56.355Z,21.20
2018-09-10T09:38:30.532Z,21.20
2018-09-10T09:41:04.674Z,21.20
2018-09-10T09:43:38.733Z,21.30
2018-09-10T09:46:10.786Z,21.20
2018-09-10T09:48:39.494Z,21.10
2018-09-10T09:51:08.219Z,21.10
2018-09-10T09:53:37.247Z,21.10
2018-09-10T09:56:05.938Z,21.10
2018-09-10T09:58:34.624Z,21.20
2018-09-10T10:01:08.649Z,21.20
2018-09-10T10:03:42.693Z,21.20
2018-09-10T10:06:11.382Z,21.20
2018-09-10T10:08:40.139Z,21.10
2018-09-10T10:11:08.843Z,21.20
2018-09-10T10:13:37.520Z,21.30
2018-09-10T10:16:06.183Z,21.30
2018-09-10T10:18:34.833Z,21.50
2018-09-10T10:21:03.515Z,21.70
2018-09-10T10:23:32.154Z,21.80
2018-09-10T10:26:00.839Z,22.10
2018-09-10T10:28:29.541Z,22.30
2018-09-10T10:30:58.464Z,22.40
2018-09-10T10:33:27.287Z,22.60
2018-09-10T10:35:55.955Z,22.90
2018-09-10T10:38:24.629Z,23.10
2018-09-10T10:40:53.273Z,23.30
2018-09-10T10:43:21.996Z,23.40
2018-09-10T10:45:50.676Z,23.40
2018-09-10T10:48:19.373Z,23.60
2018-09-10T10:50:48.051Z,23.70
2018-09-10T10:53:16.891Z,23.80
2018-09-10T10:55:45.520Z,24.00
2018-09-10T10:58:14.393Z,24.00
2018-09-10T11:00:43.070Z,24.10
2018-09-10T11:03:11.747Z,24.00
2018-09-10T11:05:40.449Z,24.30
2018-09-10T11:08:09.155Z,24.40
2018-09-10T11:10:37.863Z,24.30
2018-09-10T11:13:06.540Z,24.20
2018-09-10T11:15:35.251Z,23.90
2018-09-10T11:18:03.903Z,23.70
2018-09-10T11:20:32.613Z,23.70
2018-09-10T11:23:02.304Z,23.70
2018-09-10T11:25:30.986Z,23.80
2018-09-10T11:27:59.648Z,24.10
2018-09-10T11:30:28.324Z,24.40
2018-09-10T11:32:57.006Z,24.60
2018-09-10T11:35:25.702Z,24.40
2018-09-10T11:37:54.372Z,24.20
2018-09-10T11:40:23.059Z,24.00
2018-09-10T11:42:51.780Z,23.80
2018-09-10T11:45:20.426Z,23.70
2018-09-10T11:47:50.429Z,23.70
2018-09-10T11:50:19.113Z,23.70
2018-09-10T11:52:47.788Z,23.60
2018-09-10T11:55:16.436Z,23.60
2018-09-10T11:57:47.698Z,23.70
2018-09-10T12:00:16.348Z,23.80
2018-09-10T12:02:45.021Z,23.80
2018-09-10T12:05:13.648Z,23.70
2018-09-10T12:07:43.228Z,23.80
2018-09-10T12:10:11.980Z,23.80
2018-09-10T12:12:40.652Z,23.80
2018-09-10T12:15:09.000Z,23.80
2018-09-10T12:17:37.692Z,23.70
2018-09-10T12:20:06.347Z,23.80
2018-09-10T12:22:35.044Z,23.90
2018-09-10T12:25:03.706Z,23.90
2018-09-10T12:27:32.346Z,23.80
2018-09-10T12:30:01.045Z,23.70
2018-09-10T12:32:29.764Z,23.80
2018-09-10T12:34:58.352Z,23.80
2018-09-10T12:37:27.042Z,23.80
2018-09-10T12:39:55.727Z,23.70
2018-09-10T12:42:24.379Z,23.70
2018-09-10T12:44:53.068Z,23.70
2018-09-10T12:47:21.929Z,23.70
2018-09-10T12:49:50.588Z,23.70
2018-09-10T12:52:19.296Z,23.60
2018-09-10T12:54:47.967Z,23.60
2018-09-10T12:57:16.668Z,23.70
2018-09-10T13:02:30.112Z,23.70
2018-09-10T13:04:58.780Z,23.80
2018-09-10T13:07:27.432Z,23.80
2018-09-10T13:09:56.108Z,23.80
2018-09-10T13:12:24.805Z,23.80
2018-09-10T13:14:53.481Z,23.70
2018-09-10T13:17:22.216Z,23.70
2018-09-10T13:19:50.939Z,23.80
2018-09-10T13:22:19.591Z,23.80
2018-09-10T13:24:48.247Z,23.70
2018-09-10T13:27:16.899Z,23.80
2018-09-10T13:29:45.649Z,23.80
2018-09-10T13:32:14.223Z,23.80
2018-09-10T13:34:42.912Z,23.80
2018-09-10T13:37:11.593Z,23.80
2018-09-10T13:39:40.204Z,23.80
2018-09-10T13:42:08.864Z,23.70
2018-09-10T13:44:37.556Z,23.70
2018-09-10T13:47:06.264Z,23.70
2018-09-10T13:49:34.926Z,23.70
2018-09-10T13:52:03.604Z,23.70
2018-09-10T13:54:32.289Z,23.60
2018-09-10T13:57:00.953Z,23.60
2018-09-10T13:59:29.604Z,23.60
2018-09-10T14:01:58.254Z,23.50
2018-09-10T14:04:26.922Z,23.50
2018-09-10T14:06:55.592Z,23.50
2018-09-10T14:09:24.420Z,23.60
2018-09-10T14:11:53.190Z,23.60
2018-09-10T14:14:22.045Z,23.60
2018-09-10T14:16:50.820Z,23.60
2018-09-10T14:19:19.469Z,23.60
2018-09-10T14:21:48.186Z,23.60
2018-09-10T14:24:16.843Z,23.60
2018-09-10T14:26:45.517Z,23.60
2018-09-10T14:29:14.225Z,23.70
2018-09-10T14:31:42.877Z,23.60
2018-09-10T14:34:11.585Z,23.60
2018-09-10T14:36:40.211Z,23.60
2018-09-10T14:39:09.367Z,23.60
2018-09-10T14:41:38.056Z,23.60
2018-09-10T14:44:06.746Z,23.70
2018-09-10T14:46:35.451Z,23.70
2018-09-10T14:49:04.107Z,23.70
2018-09-10T14:51:32.824Z,23.70
2018-09-10T14:54:01.506Z,23.70
2018-09-10T14:56:30.156Z,23.80
2018-09-10T14:58:58.943Z,23.80
2018-09-10T15:01:27.602Z,23.90
2018-09-10T15:03:56.315Z,23.90
2018-09-10T15:06:24.963Z,23.90
2018-09-10T15:08:53.625Z,23.90
2018-09-10T15:11:22.279Z,23.90
2018-09-10T15:13:50.948Z,23.90
2018-09-10T15:16:19.691Z,23.90
2018-09-10T15:18:48.448Z,23.90
2018-09-10T15:21:17.009Z,23.90
2018-09-10T15:23:45.720Z,23.80
2018-09-10T15:26:14.404Z,23.80
2018-09-10T15:28:43.871Z,23.80
2018-09-10T15:31:12.728Z,23.70
2018-09-10T15:33:41.601Z,23.60
2018-09-10T15:36:10.361Z,23.60
2018-09-10T15:38:39.021Z,23.50
2018-09-10T15:41:08.215Z,23.50
2018-09-10T15:43:36.969Z,23.40
2018-09-10T15:46:05.663Z,23.40
2018-09-10T15:48:34.337Z,23.40
2018-09-10T15:51:03.056Z,23.40
2018-09-10T15:53:31.679Z,23.40
2018-09-10T15:56:00.333Z,23.30
2018-09-10T15:58:29.155Z,23.30
2018-09-10T16:00:57.942Z,23.30
2018-09-10T16:03:26.721Z,23.20
2018-09-10T16:05:55.447Z,23.20
2018-09-10T16:08:24.310Z,23.20
2018-09-10T16:10:53.144Z,23.20
2018-09-10T16:13:21.960Z,23.20
2018-09-10T16:15:50.793Z,23.20
2018-09-10T16:18:19.473Z,23.20
2018-09-10T16:20:48.126Z,23.20
2018-09-10T16:23:16.867Z,23.20
2018-09-10T16:25:45.516Z,23.10
2018-09-10T16:28:14.241Z,23.10
2018-09-10T16:30:43.012Z,23.10
2018-09-10T16:33:11.683Z,23.10
2018-09-10T16:35:40.505Z,23.10
2018-09-10T16:38:09.872Z,23.10
2018-09-10T16:40:38.570Z,23.00
2018-09-10T16:43:07.260Z,23.00
2018-09-10T16:45:35.943Z,23.00
2018-09-10T16:48:05.161Z,23.00
2018-09-10T16:50:33.952Z,22.90
2018-09-10T16:53:02.613Z,22.90
2018-09-10T16:55:31.298Z,22.90
2018-09-10T16:57:59.976Z,22.90
2018-09-10T17:00:28.617Z,22.90
2018-09-10T17:02:57.285Z,22.90
2018-09-10T17:05:25.969Z,22.80
2018-09-10T17:08:01.335Z,22.80
2018-09-10T17:10:30.023Z,22.80
2018-09-10T17:12:58.663Z,22.80
2018-09-10T17:15:27.310Z,22.80
2018-09-10T17:17:56.008Z,22.70
2018-09-10T17:20:24.720Z,22.70
2018-09-10T17:22:53.401Z,22.60
2018-09-10T17:25:22.042Z,22.60
2018-09-10T17:27:50.676Z,22.60
2018-09-10T17:30:19.367Z,22.50
2018-09-10T17:32:48.015Z,22.50
2018-09-10T17:35:16.709Z,22.50
2018-09-10T17:37:45.624Z,22.40
2018-09-10T17:40:14.414Z,22.40
2018-09-10T17:42:43.200Z,22.40
2018-09-10T17:45:11.873Z,22.40
2018-09-10T17:47:40.534Z,22.40
2018-09-10T17:50:09.237Z,22.40
2018-09-10T17:52:37.931Z,22.30
2018-09-10T17:55:06.572Z,22.30
2018-09-10T17:57:35.280Z,22.30
2018-09-10T18:00:03.984Z,22.30
2018-09-10T18:02:32.629Z,22.30
2018-09-10T18:05:01.325Z,22.30
2018-09-10T18:07:29.951Z,22.40
2018-09-10T18:09:58.610Z,22.30
2018-09-10T18:12:27.269Z,22.30
2018-09-10T18:14:55.946Z,22.30
2018-09-10T18:17:24.617Z,22.30
2018-09-10T18:19:53.263Z,22.30
2018-09-10T18:22:21.931Z,22.30
2018-09-10T18:24:50.665Z,22.30
2018-09-10T18:27:19.237Z,22.40
2018-09-10T18:29:47.928Z,22.40
2018-09-10T18:32:16.608Z,22.40
2018-09-10T18:34:45.274Z,22.30
2018-09-10T18:37:13.947Z,22.30
2018-09-10T18:39:42.617Z,22.30
2018-09-10T18:42:11.259Z,22.30
2018-09-10T18:44:39.923Z,22.30
2018-09-10T18:47:08.572Z,22.30
2018-09-10T18:49:37.244Z,22.20
2018-09-10T18:52:06.011Z,22.20
2018-09-10T18:54:34.668Z,22.20
2018-09-10T18:57:03.338Z,22.20
2018-09-10T18:59:32.095Z,22.20
2018-09-10T19:02:00.765Z,22.20
2018-09-10T19:04:29.424Z,22.20
2018-09-10T19:06:58.113Z,22.20
2018-09-10T19:09:26.794Z,22.20
2018-09-10T19:11:55.500Z,22.20
2018-09-10T19:14:24.158Z,22.00
2018-09-10T19:16:52.819Z,22.00
2018-09-10T19:19:21.492Z,22.00
2018-09-10T19:21:50.200Z,22.10
2018-09-10T19:24:19.020Z,22.00
2018-09-10T19:26:47.686Z,22.00
2018-09-10T19:29:16.341Z,22.00
2018-09-10T19:31:44.992Z,21.90
2018-09-10T19:34:13.648Z,21.90
2018-09-10T19:36:42.452Z,21.90
2018-09-10T19:39:11.906Z,21.80
2018-09-10T19:41:40.786Z,21.80
2018-09-10T19:44:09.481Z,21.80
2018-09-10T19:46:38.109Z,21.70
2018-09-10T19:49:06.750Z,21.70
2018-09-10T19:51:35.409Z,21.70
2018-09-10T19:54:04.087Z,21.70
2018-09-10T19:56:32.766Z,21.70
2018-09-10T19:59:01.671Z,21.70
2018-09-10T20:01:30.428Z,21.70
2018-09-10T20:03:59.081Z,21.60
2018-09-10T20:06:28.549Z,21.60
2018-09-10T20:08:57.200Z,21.60
2018-09-10T20:11:25.879Z,21.60
2018-09-10T20:13:54.537Z,21.70
2018-09-10T20:16:23.413Z,21.70
2018-09-10T20:18:52.130Z,21.60
2018-09-10T20:21:20.773Z,21.60
2018-09-10T20:23:49.455Z,21.50
2018-09-10T20:26:18.185Z,21.60
2018-09-10T20:28:46.813Z,21.50
2018-09-10T20:31:15.491Z,21.50
2018-09-10T20:33:49.497Z,21.50
2018-09-10T20:36:18.236Z,21.50
2018-09-10T20:38:46.979Z,21.50
2018-09-10T20:41:16.067Z,21.50
2018-09-10T20:43:44.711Z,21.50
2018-09-10T20:46:13.593Z,21.40
2018-09-10T20:48:42.384Z,21.40
2018-09-10T20:51:11.032Z,21.30
2018-09-10T20:53:39.718Z,21.30
2018-09-10T20:56:08.398Z,21.30
2018-09-10T20:58:37.060Z,21.30
2018-09-10T21:01:05.816Z,21.30
2018-09-10T21:03:34.482Z,21.30
2018-09-10T21:06:03.196Z,21.20
2018-09-10T21:08:31.886Z,21.20
2018-09-10T21:11:00.595Z,21.20
2018-09-10T21:13:29.206Z,21.20
2018-09-10T21:15:57.867Z,21.20
2018-09-10T21:18:26.988Z,21.20
2018-09-10T21:20:55.659Z,21.20
2018-09-10T21:23:24.330Z,21.10
2018-09-10T21:25:52.988Z,21.20
2018-09-10T21:28:21.674Z,21.10
2018-09-10T21:30:50.578Z,21.00
2018-09-10T21:33:19.246Z,21.00
2018-09-10T21:35:47.882Z,21.00
2018-09-10T21:38:17.108Z,21.00
2018-09-10T21:40:45.768Z,21.00
2018-09-10T21:43:14.478Z,20.90
2018-09-10T21:45:43.149Z,21.00
2018-09-10T21:48:11.773Z,20.90
2018-09-10T21:50:40.459Z,20.90
2018-09-10T21:53:09.136Z,20.90
2018-09-10T21:55:37.784Z,20.90
2018-09-10T21:58:06.677Z,20.90
2018-09-10T22:00:35.343Z,21.00
2018-09-10T22:03:04.047Z,21.00
2018-09-10T22:05:32.690Z,21.00
2018-09-10T22:08:01.385Z,21.00
2018-09-10T22:10:30.104Z,20.90
2018-09-10T22:12:58.717Z,20.80
2018-09-10T22:15:27.457Z,20.90
2018-09-10T22:17:56.222Z,20.90
2018-09-10T22:20:24.869Z,20.90
2018-09-10T22:22:53.528Z,20.90
2018-09-10T22:25:22.204Z,20.90
2018-09-10T22:27:50.854Z,20.80
2018-09-10T22:30:19.484Z,20.80
2018-09-10T22:32:49.099Z,20.80
2018-09-10T22:35:17.818Z,20.80
2018-09-10T22:37:46.510Z,20.80
2018-09-10T22:40:15.157Z,20.80
2018-09-10T22:42:43.831Z,20.70
2018-09-10T22:45:12.466Z,20.70
2018-09-10T22:47:41.198Z,20.70
2018-09-10T22:50:10.007Z,20.70
2018-09-10T22:52:38.990Z,20.70
2018-09-10T22:55:08.132Z,20.70
2018-09-10T22:57:36.800Z,20.70
2018-09-10T23:00:06.150Z,20.70
2018-09-10T23:02:34.802Z,20.70
2018-09-10T23:05:03.582Z,20.70
2018-09-10T23:07:32.262Z,20.70
2018-09-10T23:10:01.204Z,20.60
2018-09-10T23:12:29.864Z,20.60
2018-09-10T23:14:58.500Z,20.60
2018-09-10T23:17:27.194Z,20.60
2018-09-10T23:19:55.856Z,20.60
2018-09-10T23:22:24.514Z,20.60
2018-09-10T23:24:53.168Z,20.50
2018-09-10T23:27:21.822Z,20.50
2018-09-10T23:29:50.604Z,20.50
2018-09-10T23:32:19.566Z,20.40
2018-09-10T23:34:48.395Z,20.40
2018-09-10T23:37:17.174Z,20.50
2018-09-10T23:39:45.874Z,20.40
2018-09-10T23:42:14.508Z,20.50
2018-09-10T23:44:43.175Z,20.50
2018-09-10T23:47:11.784Z,20.40
2018-09-10T23:49:40.506Z,20.40
2018-09-10T23:52:09.113Z,20.40
2018-09-10T23:54:37.768Z,20.40
2018-09-10T23:57:06.400Z,20.40
2018-09-10T23:59:35.024Z,20.40
